Wetterdaten: Mittwoch, 27.06.2012
Datum Zeit Temperatur Luftfeuchte Regen Wind Richtung Richtung Taupunkt Windchill Windben
27.06.2012 00:00 15,8 C 74 % 0,0 l/m 1,1 km/h (1 Bft) SO 135 11,2 C 16,0 C 0,0 km/h (0 Bft)
27.06.2012 00:05 15,8 C 74 % 0,0 l/m 0,8 km/h (0 Bft) N-NO 22 11,2 C 15,9 C 0,0 km/h (0 Bft)
27.06.2012 00:10 15,8 C 75 % 0,0 l/m 1,3 km/h (1 Bft) NW 315 11,4 C 15,9 C 0,0 km/h (0 Bft)
27.06.2012 00:15 15,8 C 74 % 0,0 l/m 1,8 km/h (1 Bft) S-SO 157 11,2 C 15,9 C 6,3 km/h (2 Bft)
27.06.2012 00:20 15,8 C 75 % 0,0 l/m 2,1 km/h (1 Bft) NO 45 11,4 C 15,9 C 7,2 km/h (2 Bft)
27.06.2012 00:25 15,8 C 75 % 0,0 l/m 1,9 km/h (1 Bft) SO 135 11,4 C 15,9 C 0,0 km/h (0 Bft)
27.06.2012 00:30 15,7 C 75 % 0,0 l/m 1,4 km/h (1 Bft) O-SO 112 11,3 C 15,9 C 4,3 km/h (1 Bft)
27.06.2012 00:35 15,7 C 75 % 0,0 l/m 1,6 km/h (1 Bft) O-SO 112 11,3 C 15,8 C 2,6 km/h (1 Bft)
27.06.2012 00:40 15,7 C 76 % 0,0 l/m 1,1 km/h (1 Bft) N-NO 22 11,5 C 15,7 C 1,6 km/h (1 Bft)
27.06.2012 00:45 15,7 C 76 % 0,0 l/m 0,8 km/h (0 Bft) O 90 11,5 C 15,7 C 1,9 km/h (1 Bft)
27.06.2012 00:50 15,7 C 76 % 0,0 l/m 0,8 km/h (0 Bft) O 90 11,5 C 15,7 C 2,4 km/h (1 Bft)
27.06.2012 00:55 15,7 C 76 % 0,0 l/m 0,5 km/h (0 Bft) SO 135 11,5 C 15,7 C 0,0 km/h (0 Bft)
27.06.2012 01:00 15,6 C 76 % 0,0 l/m 0,5 km/h (0 Bft) O-NO 67 11,4 C 15,6 C 0,0 km/h (0 Bft)
27.06.2012 01:05 15,6 C 76 % 0,0 l/m 0,3 km/h (0 Bft) S-SO 157 11,4 C 15,6 C 0,0 km/h (0 Bft)
27.06.2012 01:10 15,6 C 77 % 0,0 l/m 0,0 km/h (0 Bft) NO 45 11,6 C 15,5 C 0,0 km/h (0 Bft)
27.06.2012 01:15 15,5 C 77 % 0,0 l/m 0,0 km/h (0 Bft) O 90 11,5 C 15,5 C 0,0 km/h (0 Bft)
27.06.2012 01:20 15,5 C 77 % 0,0 l/m 0,3 km/h (0 Bft) O-SO 112 11,5 C 15,5 C 2,4 km/h (1 Bft)
27.06.2012 01:25 15,5 C 77 % 0,0 l/m 0,5 km/h (0 Bft) N-NO 22 11,5 C 15,5 C 0,0 km/h (0 Bft)
27.06.2012 01:30 15,5 C 77 % 0,0 l/m 0,8 km/h (0 Bft) O-SO 112 11,5 C 15,5 C 1,6 km/h (1 Bft)
27.06.2012 01:35 15,5 C 77 % 0,0 l/m 1,0 km/h (0 Bft) SO 135 11,5 C 15,5 C 0,0 km/h (0 Bft)
27.06.2012 01:40 15,5 C 78 % 0,0 l/m 0,8 km/h (0 Bft) O 90 11,7 C 15,5 C 0,0 km/h (0 Bft)
27.06.2012 01:45 15,5 C 77 % 0,0 l/m 1,0 km/h (0 Bft) O-SO 112 11,5 C 15,5 C 3,5 km/h (1 Bft)
27.06.2012 01:50 15,5 C 77 % 0,0 l/m 1,6 km/h (1 Bft) O-SO 112 11,5 C 15,5 C 0,0 km/h (0 Bft)
27.06.2012 01:55 15,4 C 77 % 0,0 l/m 1,4 km/h (1 Bft) O-SO 112 11,4 C 15,5 C 2,3 km/h (1 Bft)
27.06.2012 02:00 15,4 C 77 % 0,0 l/m 0,5 km/h (0 Bft) O-SO 112 11,4 C 15,5 C 0,0 km/h (0 Bft)
27.06.2012 02:05 15,4 C 77 % 0,0 l/m 0,5 km/h (0 Bft) O-NO 67 11,4 C 15,4 C 0,0 km/h (0 Bft)
27.06.2012 02:10 15,3 C 78 % 0,0 l/m 0,5 km/h (0 Bft) SO 135 11,5 C 15,3 C 0,0 km/h (0 Bft)
27.06.2012 02:15 15,4 C 78 % 0,0 l/m 0,3 km/h (0 Bft) O 90 11,6 C 15,3 C 0,0 km/h (0 Bft)
27.06.2012 02:20 15,4 C 78 % 0,0 l/m 0,2 km/h (0 Bft) W-SW 247 11,6 C 15,3 C 0,0 km/h (0 Bft)
27.06.2012 02:25 15,4 C 78 % 0,0 l/m 0,2 km/h (0 Bft) W-SW 247 11,6 C 15,3 C 0,0 km/h (0 Bft)
27.06.2012 02:30 15,3 C 79 % 0,0 l/m 0,0 km/h (0 Bft) S 180 11,7 C 15,3 C 0,0 km/h (0 Bft)
27.06.2012 02:35 15,2 C 79 % 0,0 l/m 0,0 km/h (0 Bft) S 180 11,6 C 15,3 C 0,0 km/h (0 Bft)
27.06.2012 02:40 15,3 C 79 % 0,0 l/m 0,0 km/h (0 Bft) N-NO 22 11,7 C 15,2 C 0,0 km/h (0 Bft)
27.06.2012 02:45 15,3 C 79 % 0,0 l/m 0,0 km/h (0 Bft) SO 135 11,7 C 15,2 C 0,0 km/h (0 Bft)
27.06.2012 02:50 15,3 C 79 % 0,0 l/m 0,5 km/h (0 Bft) SO 135 11,7 C 15,3 C 2,6 km/h (1 Bft)
27.06.2012 02:55 15,3 C 79 % 0,0 l/m 0,5 km/h (0 Bft) S-SO 157 11,7 C 15,3 C 0,0 km/h (0 Bft)
27.06.2012 03:00 15,3 C 79 % 0,0 l/m 0,2 km/h (0 Bft) NO 45 11,7 C 15,3 C 0,0 km/h (0 Bft)
27.06.2012 03:05 15,3 C 79 % 0,0 l/m 0,0 km/h (0 Bft) O-NO 67 11,7 C 15,3 C 0,0 km/h (0 Bft)
27.06.2012 03:10 15,3 C 79 % 0,0 l/m 0,2 km/h (0 Bft) O 90 11,7 C 15,3 C 0,0 km/h (0 Bft)
27.06.2012 03:15 15,3 C 79 % 0,0 l/m 0,0 km/h (0 Bft) O-NO 67 11,7 C 15,2 C 0,0 km/h (0 Bft)
27.06.2012 03:20 15,3 C 79 % 0,0 l/m 0,0 km/h (0 Bft) N-NO 22 11,7 C 15,2 C 0,0 km/h (0 Bft)
27.06.2012 03:25 15,3 C 79 % 0,0 l/m 0,0 km/h (0 Bft) O-NO 67 11,7 C 15,2 C 0,0 km/h (0 Bft)
27.06.2012 03:30 15,3 C 79 % 0,0 l/m 0,0 km/h (0 Bft) N 360 11,7 C 15,2 C 0,0 km/h (0 Bft)
27.06.2012 03:35 15,3 C 79 % 0,0 l/m 0,2 km/h (0 Bft) O-SO 112 11,7 C 15,2 C 0,0 km/h (0 Bft)
27.06.2012 03:40 15,3 C 79 % 0,0 l/m 0,0 km/h (0 Bft) NO 45 11,7 C 15,2 C 0,0 km/h (0 Bft)
27.06.2012 03:45 15,3 C 80 % 0,0 l/m 0,0 km/h (0 Bft) NO 45 11,9 C 15,2 C 0,0 km/h (0 Bft)
27.06.2012 03:50 15,2 C 80 % 0,0 l/m 0,0 km/h (0 Bft) S-SO 157 11,8 C 15,2 C 0,0 km/h (0 Bft)
27.06.2012 03:55 15,2 C 80 % 0,0 l/m 0,0 km/h (0 Bft) S-SW 202 11,8 C 15,1 C 0,0 km/h (0 Bft)
27.06.2012 04:00 15,1 C 81 % 0,0 l/m 0,0 km/h (0 Bft) S 180 11,9 C 15,1 C 0,0 km/h (0 Bft)
27.06.2012 04:05 15,1 C 81 % 0,0 l/m 0,0 km/h (0 Bft) S 180 11,9 C 15,0 C 0,0 km/h (0 Bft)
27.06.2012 04:10 15,0 C 81 % 0,0 l/m 0,0 km/h (0 Bft) N 360 11,8 C 14,9 C 0,0 km/h (0 Bft)
27.06.2012 04:15 14,9 C 81 % 0,0 l/m 0,0 km/h (0 Bft) N 360 11,7 C 14,8 C 0,0 km/h (0 Bft)
27.06.2012 04:20 14,9 C 81 % 0,0 l/m 0,0 km/h (0 Bft) O-SO 112 11,7 C 14,8 C 0,0 km/h (0 Bft)
27.06.2012 04:25 14,9 C 81 % 0,0 l/m 0,0 km/h (0 Bft) N-NO 22 11,7 C 14,8 C 0,0 km/h (0 Bft)
27.06.2012 04:30 14,8 C 81 % 0,0 l/m 0,0 km/h (0 Bft) NO 45 11,6 C 14,8 C 0,0 km/h (0 Bft)
27.06.2012 04:35 14,8 C 82 % 0,0 l/m 0,0 km/h (0 Bft) O-NO 67 11,8 C 14,8 C 0,0 km/h (0 Bft)
27.06.2012 04:40 14,9 C 82 % 0,0 l/m 0,0 km/h (0 Bft) NO 45 11,9 C 14,7 C 0,0 km/h (0 Bft)
27.06.2012 04:45 14,9 C 82 % 0,0 l/m 0,0 km/h (0 Bft) N-NO 22 11,9 C 14,7 C 0,0 km/h (0 Bft)
27.06.2012 04:50 14,8 C 82 % 0,0 l/m 0,0 km/h (0 Bft) SO 135 11,8 C 14,7 C 0,0 km/h (0 Bft)
27.06.2012 04:55 14,8 C 82 % 0,0 l/m 0,2 km/h (0 Bft) O-SO 112 11,8 C 14,7 C 2,3 km/h (1 Bft)
27.06.2012 05:00 14,8 C 82 % 0,0 l/m 0,2 km/h (0 Bft) N 360 11,8 C 14,7 C 0,0 km/h (0 Bft)
27.06.2012 05:05 14,8 C 82 % 0,0 l/m 0,2 km/h (0 Bft) O 90 11,8 C 14,7 C 1,8 km/h (1 Bft)
27.06.2012 05:10 14,8 C 83 % 0,0 l/m 0,3 km/h (0 Bft) N-NO 22 11,9 C 14,7 C 0,0 km/h (0 Bft)
27.06.2012 05:15 14,9 C 83 % 0,0 l/m 0,3 km/h (0 Bft) N-NO 22 12,0 C 14,7 C 0,0 km/h (0 Bft)
27.06.2012 05:20 14,9 C 83 % 0,0 l/m 0,0 km/h (0 Bft) N-NO 22 12,0 C 14,7 C 0,0 km/h (0 Bft)
27.06.2012 05:25 14,9 C 83 % 0,0 l/m 0,0 km/h (0 Bft) O 90 12,0 C 14,7 C 0,0 km/h (0 Bft)
27.06.2012 05:30 14,9 C 83 % 0,0 l/m 0,0 km/h (0 Bft) NO 45 12,0 C 14,7 C 0,0 km/h (0 Bft)
27.06.2012 05:35 14,9 C 83 % 0,0 l/m 0,0 km/h (0 Bft) N-NO 22 12,0 C 14,7 C 0,0 km/h (0 Bft)
27.06.2012 05:40 14,8 C 83 % 0,0 l/m 0,0 km/h (0 Bft) SO 135 11,9 C 14,5 C 2,4 km/h (1 Bft)
27.06.2012 05:45 14,8 C 84 % 0,0 l/m 0,3 km/h (0 Bft) O 90 12,1 C 14,5 C 0,0 km/h (0 Bft)
27.06.2012 05:50 14,8 C 84 % 0,0 l/m 0,5 km/h (0 Bft) N 360 12,1 C 14,4 C 0,0 km/h (0 Bft)
27.06.2012 05:55 14,6 C 85 % 0,0 l/m 0,2 km/h (0 Bft) N 360 12,1 C 14,3 C 1,6 km/h (1 Bft)
27.06.2012 06:00 14,6 C 87 % 0,0 l/m 0,2 km/h (0 Bft) O-SO 112 12,5 C 14,2 C 0,0 km/h (0 Bft)
27.06.2012 06:05 14,7 C 88 % 0,0 l/m 0,5 km/h (0 Bft) N 360 12,7 C 14,2 C 2,3 km/h (1 Bft)
27.06.2012 06:10 14,7 C 88 % 0,0 l/m 0,8 km/h (0 Bft) NO 45 12,7 C 14,4 C 0,0 km/h (0 Bft)
27.06.2012 06:15 14,7 C 89 % 0,0 l/m 1,3 km/h (1 Bft) O-SO 112 12,9 C 14,4 C 2,7 km/h (1 Bft)
27.06.2012 06:20 14,7 C 89 % 0,0 l/m 1,6 km/h (1 Bft) O-SO 112 12,9 C 14,4 C 1,6 km/h (1 Bft)
27.06.2012 06:25 14,7 C 89 % 0,0 l/m 1,6 km/h (1 Bft) O-SO 112 12,9 C 14,4 C 0,0 km/h (0 Bft)
27.06.2012 06:30 14,9 C 89 % 0,0 l/m 0,8 km/h (0 Bft) SO 135 13,1 C 14,5 C 2,3 km/h (1 Bft)
27.06.2012 06:35 15,1 C 89 % 0,0 l/m 0,3 km/h (0 Bft) SO 135 13,3 C 14,7 C 1,6 km/h (1 Bft)
27.06.2012 06:40 15,3 C 89 % 0,0 l/m 0,3 km/h (0 Bft) SO 135 13,5 C 15,0 C 1,6 km/h (1 Bft)
27.06.2012 06:45 15,4 C 89 % 0,0 l/m 0,3 km/h (0 Bft) S 180 13,6 C 15,0 C 1,6 km/h (1 Bft)
27.06.2012 06:50 15,6 C 89 % 0,0 l/m 0,6 km/h (0 Bft) O 90 13,8 C 15,4 C 3,4 km/h (1 Bft)
27.06.2012 06:55 15,6 C 89 % 0,0 l/m 1,0 km/h (0 Bft) O-SO 112 13,8 C 15,5 C 3,5 km/h (1 Bft)
27.06.2012 07:00 15,3 C 89 % 0,0 l/m 2,1 km/h (1 Bft) O-SO 112 13,5 C 15,3 C 3,7 km/h (1 Bft)
27.06.2012 07:05 15,2 C 89 % 0,0 l/m 2,1 km/h (1 Bft) S-SO 157 13,4 C 15,2 C 2,3 km/h (1 Bft)
27.06.2012 07:10 15,2 C 89 % 0,0 l/m 2,1 km/h (1 Bft) NW 315 13,4 C 15,0 C 3,7 km/h (1 Bft)
27.06.2012 07:15 15,1 C 89 % 0,0 l/m 2,7 km/h (1 Bft) S 180 13,3 C 15,0 C 3,9 km/h (1 Bft)
27.06.2012 07:20 15,2 C 89 % 0,0 l/m 2,7 km/h (1 Bft) O 90 13,4 C 15,0 C 2,3 km/h (1 Bft)
27.06.2012 07:25 15,2 C 89 % 0,0 l/m 2,6 km/h (1 Bft) O 90 13,4 C 15,0 C 5,8 km/h (2 Bft)
27.06.2012 07:30 15,3 C 89 % 0,0 l/m 2,3 km/h (1 Bft) O-SO 112 13,5 C 15,0 C 8,9 km/h (2 Bft)
27.06.2012 07:35 15,5 C 89 % 0,0 l/m 2,1 km/h (1 Bft) SO 135 13,7 C 15,2 C 2,7 km/h (1 Bft)
27.06.2012 07:40 15,6 C 89 % 0,0 l/m 2,1 km/h (1 Bft) O-SO 112 13,8 C 15,4 C 2,4 km/h (1 Bft)
27.06.2012 07:45 16,0 C 89 % 0,0 l/m 1,9 km/h (1 Bft) O-SO 112 14,2 C 15,5 C 3,2 km/h (1 Bft)
27.06.2012 07:50 16,4 C 88 % 0,0 l/m 2,4 km/h (1 Bft) O 90 14,4 C 16,2 C 3,5 km/h (1 Bft)
27.06.2012 07:55 16,9 C 87 % 0,0 l/m 3,2 km/h (1 Bft) O-NO 67 14,7 C 16,5 C 6,3 km/h (2 Bft)
27.06.2012 08:00 17,4 C 86 % 0,0 l/m 3,2 km/h (1 Bft) O-SO 112 15,0 C 17,1 C 6,9 km/h (2 Bft)
27.06.2012 08:05 17,6 C 85 % 0,0 l/m 3,1 km/h (1 Bft) SO 135 15,0 C 17,3 C 3,9 km/h (1 Bft)
27.06.2012 08:10 17,6 C 84 % 0,0 l/m 3,5 km/h (1 Bft) O-SO 112 14,9 C 17,8 C 4,8 km/h (1 Bft)
27.06.2012 08:15 19,1 C 80 % 0,0 l/m 3,7 km/h (1 Bft) NO 45 15,9 C 18,7 C 4,5 km/h (1 Bft)
27.06.2012 08:20 19,7 C 80 % 0,0 l/m 3,7 km/h (1 Bft) SO 135 16,1 C 19,1 C 4,5 km/h (1 Bft)
27.06.2012 08:25 19,5 C 79 % 0,0 l/m 3,9 km/h (1 Bft) O-SO 112 15,8 C 19,6 C 4,7 km/h (1 Bft)
27.06.2012 08:30 18,6 C 80 % 0,0 l/m 3,5 km/h (1 Bft) O-SO 112 15,1 C 19,5 C 7,2 km/h (2 Bft)
27.06.2012 08:35 18,3 C 80 % 0,0 l/m 3,4 km/h (1 Bft) SO 135 14,8 C 19,1 C 3,5 km/h (1 Bft)
27.06.2012 08:40 18,1 C 81 % 0,0 l/m 3,1 km/h (1 Bft) S 180 14,8 C 18,7 C 3,5 km/h (1 Bft)
27.06.2012 08:45 18,1 C 80 % 0,0 l/m 3,1 km/h (1 Bft) O-SO 112 14,6 C 18,7 C 3,5 km/h (1 Bft)
27.06.2012 08:50 18,5 C 80 % 0,0 l/m 3,9 km/h (1 Bft) NO 45 15,0 C 18,7 C 7,2 km/h (2 Bft)
27.06.2012 08:55 18,5 C 80 % 0,0 l/m 3,5 km/h (1 Bft) SO 135 15,0 C 18,7 C 3,9 km/h (1 Bft)
27.06.2012 09:00 18,6 C 79 % 0,0 l/m 2,9 km/h (1 Bft) O-SO 112 14,9 C 18,9 C 3,1 km/h (1 Bft)
27.06.2012 09:05 18,6 C 79 % 0,0 l/m 3,1 km/h (1 Bft) S-SO 157 14,9 C 18,9 C 3,9 km/h (1 Bft)
27.06.2012 09:10 18,6 C 79 % 0,0 l/m 2,4 km/h (1 Bft) SO 135 14,9 C 19,2 C 4,5 km/h (1 Bft)
27.06.2012 09:15 18,6 C 79 % 0,0 l/m 2,1 km/h (1 Bft) S-SW 202 14,9 C 19,4 C 2,4 km/h (1 Bft)
27.06.2012 09:20 20,0 C 78 % 0,0 l/m 2,1 km/h (1 Bft) W-SW 247 16,1 C 20,2 C 3,4 km/h (1 Bft)
27.06.2012 09:25 20,0 C 77 % 0,0 l/m 1,9 km/h (1 Bft) SO 135 15,8 C 20,5 C 4,7 km/h (1 Bft)
27.06.2012 09:30 20,0 C 75 % 0,0 l/m 2,6 km/h (1 Bft) W-NW 292 15,4 C 20,8 C 0,0 km/h (0 Bft)
27.06.2012 09:35 20,2 C 76 % 0,0 l/m 2,1 km/h (1 Bft) O-SO 112 15,8 C 21,2 C 3,1 km/h (1 Bft)
27.06.2012 09:40 19,4 C 75 % 0,0 l/m 1,1 km/h (1 Bft) N-NO 22 14,8 C 21,2 C 0,0 km/h (0 Bft)
27.06.2012 09:45 19,8 C 76 % 0,0 l/m 1,0 km/h (0 Bft) W-SW 247 15,4 C 21,2 C 0,0 km/h (0 Bft)
27.06.2012 09:50 20,2 C 75 % 0,0 l/m 1,0 km/h (0 Bft) S-SW 202 15,6 C 21,8 C 1,6 km/h (1 Bft)
27.06.2012 09:55 20,8 C 70 % 0,0 l/m 2,7 km/h (1 Bft) O-SO 112 15,1 C 21,9 C 6,6 km/h (2 Bft)
27.06.2012 10:00 20,9 C 66 % 0,0 l/m 4,8 km/h (1 Bft) SO 135 14,3 C 22,3 C 9,5 km/h (2 Bft)
27.06.2012 10:05 20,6 C 66 % 0,0 l/m 5,5 km/h (1 Bft) S 180 14,0 C 22,0 C 7,4 km/h (2 Bft)
27.06.2012 10:10 21,4 C 68 % 0,0 l/m 5,5 km/h (1 Bft) O-SO 112 15,2 C 21,8 C 10,8 km/h (2 Bft)
27.06.2012 10:15 21,3 C 65 % 0,0 l/m 5,3 km/h (1 Bft) S-SO 157 14,4 C 22,0 C 9,3 km/h (2 Bft)
27.06.2012 10:20 21,7 C 65 % 0,0 l/m 5,1 km/h (1 Bft) S-SO 157 15,2 C 22,1 C 4,3 km/h (1 Bft)
27.06.2012 10:25 21,2 C 62 % 0,0 l/m 5,5 km/h (1 Bft) S 180 13,6 C 22,3 C 6,8 km/h (2 Bft)
27.06.2012 10:30 22,7 C 60 % 0,0 l/m 5,6 km/h (1 Bft) S-SO 157 14,9 C 23,3 C 12,7 km/h (3 Bft)
27.06.2012 10:35 22,3 C 59 % 0,0 l/m 6,6 km/h (2 Bft) S 180 14,0 C 23,6 C 11,1 km/h (2 Bft)
27.06.2012 10:40 21,0 C 65 % 0,0 l/m 6,4 km/h (2 Bft) S 180 14,2 C 22,3 C 13,7 km/h (3 Bft)
27.06.2012 10:45 20,7 C 65 % 0,0 l/m 5,5 km/h (1 Bft) SO 135 13,9 C 22,2 C 4,2 km/h (1 Bft)
27.06.2012 10:50 21,6 C 66 % 0,0 l/m 4,2 km/h (1 Bft) NO 45 15,0 C 21,6 C 3,2 km/h (1 Bft)
27.06.2012 10:55 23,0 C 58 % 0,0 l/m 5,1 km/h (1 Bft) O-SO 112 14,5 C 22,2 C 8,9 km/h (2 Bft)
27.06.2012 11:00 23,7 C 58 % 0,0 l/m 6,0 km/h (2 Bft) SO 135 15,0 C 23,7 C 9,0 km/h (2 Bft)
27.06.2012 11:05 22,7 C 59 % 0,0 l/m 5,8 km/h (2 Bft) SO 135 14,3 C 24,2 C 6,4 km/h (2 Bft)
27.06.2012 11:10 21,8 C 61 % 0,0 l/m 5,1 km/h (1 Bft) SO 135 13,9 C 23,6 C 6,1 km/h (2 Bft)
27.06.2012 11:15 21,9 C 62 % 0,0 l/m 5,1 km/h (1 Bft) O-SO 112 14,3 C 22,9 C 14,0 km/h (3 Bft)
27.06.2012 11:20 23,3 C 56 % 0,0 l/m 6,3 km/h (2 Bft) S 180 14,0 C 24,2 C 14,5 km/h (3 Bft)
27.06.2012 11:25 23,5 C 57 % 0,0 l/m 6,3 km/h (2 Bft) S-SO 157 14,5 C 24,2 C 7,2 km/h (2 Bft)
27.06.2012 11:30 22,2 C 58 % 0,0 l/m 6,1 km/h (2 Bft) O-SO 112 13,5 C 23,7 C 15,8 km/h (3 Bft)
27.06.2012 11:35 21,3 C 61 % 0,0 l/m 6,4 km/h (2 Bft) SO 135 13,5 C 22,9 C 9,2 km/h (2 Bft)
27.06.2012 11:40 20,7 C 62 % 0,0 l/m 5,6 km/h (1 Bft) SO 135 13,2 C 21,7 C 5,8 km/h (2 Bft)
27.06.2012 11:45 20,8 C 64 % 0,0 l/m 5,6 km/h (1 Bft) SO 135 13,7 C 21,5 C 6,9 km/h (2 Bft)
27.06.2012 11:50 21,5 C 64 % 0,0 l/m 4,0 km/h (1 Bft) S 180 14,4 C 22,2 C 3,9 km/h (1 Bft)
27.06.2012 11:55 23,8 C 57 % 0,0 l/m 4,0 km/h (1 Bft) S-SO 157 14,8 C 23,5 C 6,6 km/h (2 Bft)
27.06.2012 12:00 24,8 C 54 % 0,0 l/m 6,3 km/h (2 Bft) O-SO 112 14,8 C 24,8 C 7,4 km/h (2 Bft)
27.06.2012 12:05 23,8 C 54 % 0,0 l/m 6,9 km/h (2 Bft) SO 135 13,9 C 25,0 C 10,5 km/h (2 Bft)
27.06.2012 12:10 24,5 C 52 % 0,0 l/m 7,1 km/h (2 Bft) S-SO 157 14,0 C 24,7 C 7,1 km/h (2 Bft)
27.06.2012 12:15 23,8 C 53 % 0,0 l/m 6,6 km/h (2 Bft) SO 135 13,6 C 24,7 C 4,7 km/h (1 Bft)
27.06.2012 12:20 23,5 C 54 % 0,0 l/m 5,3 km/h (1 Bft) S 180 13,6 C 25,0 C 3,1 km/h (1 Bft)
27.06.2012 12:25 22,5 C 56 % 0,0 l/m 4,3 km/h (1 Bft) O-SO 112 13,3 C 24,8 C 3,5 km/h (1 Bft)
27.06.2012 12:30 21,8 C 59 % 0,0 l/m 5,1 km/h (1 Bft) SO 135 13,4 C 23,3 C 7,9 km/h (2 Bft)
27.06.2012 12:35 21,5 C 59 % 0,0 l/m 6,0 km/h (2 Bft) SO 135 13,1 C 22,7 C 5,1 km/h (1 Bft)
27.06.2012 12:40 23,9 C 57 % 0,0 l/m 5,0 km/h (1 Bft) S 180 14,9 C 23,5 C 6,0 km/h (2 Bft)
27.06.2012 12:45 24,9 C 50 % 0,0 l/m 5,1 km/h (1 Bft) SO 135 13,7 C 24,1 C 8,7 km/h (2 Bft)
27.06.2012 12:50 23,2 C 55 % 0,0 l/m 4,5 km/h (1 Bft) O-SO 112 13,6 C 25,0 C 3,5 km/h (1 Bft)
27.06.2012 12:55 22,5 C 57 % 0,0 l/m 5,1 km/h (1 Bft) SO 135 13,5 C 24,4 C 14,8 km/h (3 Bft)
27.06.2012 13:00 22,0 C 58 % 0,0 l/m 6,4 km/h (2 Bft) S 180 13,3 C 23,3 C 6,1 km/h (2 Bft)
27.06.2012 13:05 21,9 C 57 % 0,0 l/m 6,8 km/h (2 Bft) O-SO 112 13,0 C 23,0 C 13,2 km/h (3 Bft)
27.06.2012 13:10 22,0 C 59 % 0,0 l/m 5,1 km/h (1 Bft) S-SO 157 13,6 C 22,9 C 5,8 km/h (2 Bft)
27.06.2012 13:15 21,8 C 59 % 0,0 l/m 4,5 km/h (1 Bft) S 180 13,4 C 23,0 C 4,8 km/h (1 Bft)
27.06.2012 13:20 22,1 C 59 % 0,0 l/m 5,0 km/h (1 Bft) SO 135 13,7 C 23,0 C 6,1 km/h (2 Bft)
27.06.2012 13:25 22,1 C 59 % 0,0 l/m 5,3 km/h (1 Bft) SO 135 13,7 C 23,0 C 7,7 km/h (2 Bft)
27.06.2012 13:30 23,5 C 59 % 0,0 l/m 5,1 km/h (1 Bft) S 180 15,0 C 23,2 C 2,9 km/h (1 Bft)
27.06.2012 13:35 24,0 C 55 % 0,0 l/m 5,3 km/h (1 Bft) O-SO 112 14,4 C 24,3 C 6,0 km/h (2 Bft)
27.06.2012 13:40 23,9 C 57 % 0,0 l/m 4,8 km/h (1 Bft) SO 135 14,9 C 24,6 C 6,9 km/h (2 Bft)
27.06.2012 13:45 24,5 C 55 % 0,0 l/m 5,1 km/h (1 Bft) SO 135 14,9 C 24,7 C 6,6 km/h (2 Bft)
27.06.2012 13:50 26,0 C 47 % 0,0 l/m 6,1 km/h (2 Bft) SO 135 13,8 C 26,6 C 11,9 km/h (2 Bft)
27.06.2012 13:55 25,2 C 49 % 0,0 l/m 6,4 km/h (2 Bft) S-SW 202 13,7 C 27,0 C 4,7 km/h (1 Bft)
27.06.2012 14:00 25,3 C 48 % 0,0 l/m 6,1 km/h (2 Bft) S 180 13,5 C 27,0 C 9,7 km/h (2 Bft)
27.06.2012 14:05 24,7 C 51 % 0,0 l/m 5,8 km/h (2 Bft) SO 135 13,9 C 26,7 C 4,8 km/h (1 Bft)
27.06.2012 14:10 25,0 C 49 % 0,0 l/m 5,5 km/h (1 Bft) O-SO 112 13,5 C 26,4 C 3,9 km/h (1 Bft)
27.06.2012 14:15 24,9 C 51 % 0,0 l/m 5,8 km/h (2 Bft) S-SO 157 14,1 C 26,1 C 8,9 km/h (2 Bft)
27.06.2012 14:20 23,7 C 51 % 0,0 l/m 6,0 km/h (2 Bft) S-SO 157 13,0 C 25,5 C 9,2 km/h (2 Bft)
27.06.2012 14:25 23,3 C 53 % 0,0 l/m 6,3 km/h (2 Bft) S 180 13,2 C 25,1 C 4,0 km/h (1 Bft)
27.06.2012 14:30 22,8 C 56 % 0,0 l/m 5,6 km/h (1 Bft) N 360 13,6 C 24,2 C 3,7 km/h (1 Bft)
27.06.2012 14:35 24,2 C 56 % 0,0 l/m 4,8 km/h (1 Bft) O-SO 112 14,9 C 24,3 C 4,7 km/h (1 Bft)
27.06.2012 14:40 25,6 C 48 % 0,0 l/m 4,5 km/h (1 Bft) O-SO 112 13,8 C 26,0 C 4,3 km/h (1 Bft)
27.06.2012 14:45 26,0 C 48 % 0,0 l/m 5,0 km/h (1 Bft) SO 135 14,1 C 26,5 C 11,1 km/h (2 Bft)
27.06.2012 14:50 25,9 C 49 % 0,0 l/m 6,0 km/h (2 Bft) S-SO 157 14,4 C 27,2 C 5,3 km/h (1 Bft)
27.06.2012 14:55 26,3 C 48 % 0,0 l/m 6,1 km/h (2 Bft) S-SW 202 14,4 C 27,3 C 2,9 km/h (1 Bft)
27.06.2012 15:00 26,2 C 47 % 0,0 l/m 5,6 km/h (1 Bft) O-SO 112 14,0 C 27,6 C 7,6 km/h (2 Bft)
27.06.2012 15:05 26,3 C 47 % 0,0 l/m 6,0 km/h (2 Bft) O-SO 112 14,1 C 27,6 C 8,7 km/h (2 Bft)
27.06.2012 15:10 26,1 C 46 % 0,0 l/m 6,1 km/h (2 Bft) S-SO 157 13,6 C 27,6 C 9,8 km/h (2 Bft)
27.06.2012 15:15 25,9 C 47 % 0,0 l/m 6,0 km/h (2 Bft) W-SW 247 13,7 C 27,6 C 8,0 km/h (2 Bft)
27.06.2012 15:20 26,6 C 45 % 0,0 l/m 6,6 km/h (2 Bft) S 180 13,7 C 27,4 C 10,6 km/h (2 Bft)
27.06.2012 15:25 26,0 C 47 % 0,0 l/m 7,1 km/h (2 Bft) S-SO 157 13,8 C 27,3 C 10,3 km/h (2 Bft)
27.06.2012 15:30 26,0 C 46 % 0,0 l/m 7,2 km/h (2 Bft) S 180 13,5 C 27,0 C 4,3 km/h (1 Bft)
27.06.2012 15:35 26,1 C 46 % 0,0 l/m 6,1 km/h (2 Bft) S 180 13,6 C 27,2 C 10,0 km/h (2 Bft)
27.06.2012 15:40 26,2 C 45 % 0,0 l/m 6,4 km/h (2 Bft) O-SO 112 13,3 C 27,3 C 13,2 km/h (3 Bft)
27.06.2012 15:45 26,5 C 45 % 0,0 l/m 6,6 km/h (2 Bft) SO 135 13,6 C 27,4 C 7,4 km/h (2 Bft)
27.06.2012 15:50 25,1 C 48 % 0,0 l/m 5,8 km/h (2 Bft) SO 135 13,3 C 27,5 C 5,8 km/h (2 Bft)
27.06.2012 15:55 25,9 C 48 % 0,0 l/m 5,3 km/h (1 Bft) SO 135 14,0 C 26,6 C 6,4 km/h (2 Bft)
27.06.2012 16:00 26,8 C 44 % 0,0 l/m 6,1 km/h (2 Bft) SW 225 13,5 C 27,5 C 11,1 km/h (2 Bft)
27.06.2012 16:05 26,6 C 42 % 0,0 l/m 6,6 km/h (2 Bft) S-SO 157 12,6 C 27,8 C 10,0 km/h (2 Bft)
27.06.2012 16:10 26,6 C 43 % 0,0 l/m 6,3 km/h (2 Bft) W-SW 247 13,0 C 28,2 C 4,8 km/h (1 Bft)
27.06.2012 16:15 25,0 C 45 % 0,0 l/m 5,3 km/h (1 Bft) O-SO 112 12,2 C 28,1 C 4,7 km/h (1 Bft)
27.06.2012 16:20 25,7 C 45 % 0,0 l/m 5,5 km/h (1 Bft) S-SO 157 12,9 C 28,1 C 11,7 km/h (2 Bft)
27.06.2012 16:25 24,7 C 47 % 0,0 l/m 5,8 km/h (2 Bft) S 180 12,6 C 27,7 C 6,4 km/h (2 Bft)
27.06.2012 16:30 26,1 C 46 % 0,0 l/m 5,5 km/h (1 Bft) SO 135 13,6 C 27,5 C 5,1 km/h (1 Bft)
27.06.2012 16:35 26,2 C 46 % 0,0 l/m 5,5 km/h (1 Bft) SO 135 13,6 C 28,0 C 7,9 km/h (2 Bft)
27.06.2012 16:40 25,5 C 46 % 0,0 l/m 6,8 km/h (2 Bft) O-SO 112 13,0 C 27,7 C 4,0 km/h (1 Bft)
27.06.2012 16:45 24,3 C 48 % 0,0 l/m 6,8 km/h (2 Bft) O-SO 112 12,6 C 27,4 C 6,6 km/h (2 Bft)
27.06.2012 16:50 23,6 C 51 % 0,0 l/m 3,7 km/h (1 Bft) SO 135 12,9 C 25,8 C 3,7 km/h (1 Bft)
27.06.2012 16:55 23,8 C 52 % 0,0 l/m 2,9 km/h (1 Bft) S 180 13,3 C 25,5 C 4,5 km/h (1 Bft)
27.06.2012 17:00 24,0 C 51 % 0,0 l/m 3,2 km/h (1 Bft) O-SO 112 13,2 C 26,0 C 4,0 km/h (1 Bft)
27.06.2012 17:05 23,6 C 53 % 0,0 l/m 3,7 km/h (1 Bft) O-SO 112 13,4 C 26,1 C 4,2 km/h (1 Bft)
27.06.2012 17:10 22,9 C 55 % 0,0 l/m 3,1 km/h (1 Bft) W 270 13,4 C 25,1 C 0,0 km/h (0 Bft)
27.06.2012 17:15 23,9 C 56 % 0,0 l/m 2,9 km/h (1 Bft) SO 135 14,6 C 25,6 C 5,8 km/h (2 Bft)
27.06.2012 17:20 23,6 C 54 % 0,0 l/m 3,4 km/h (1 Bft) S-SO 157 13,7 C 26,6 C 4,0 km/h (1 Bft)
27.06.2012 17:25 23,4 C 54 % 0,0 l/m 3,7 km/h (1 Bft) S-SO 157 13,6 C 26,5 C 2,6 km/h (1 Bft)
27.06.2012 17:30 23,0 C 55 % 0,0 l/m 3,1 km/h (1 Bft) O 90 13,5 C 25,5 C 1,8 km/h (1 Bft)
27.06.2012 17:35 23,3 C 56 % 0,0 l/m 2,9 km/h (1 Bft) S-SO 157 14,0 C 25,9 C 3,5 km/h (1 Bft)
27.06.2012 17:40 24,0 C 55 % 0,0 l/m 2,9 km/h (1 Bft) N-NO 22 14,4 C 27,2 C 6,0 km/h (2 Bft)
27.06.2012 17:45 23,9 C 53 % 0,0 l/m 3,5 km/h (1 Bft) SO 135 13,7 C 27,7 C 2,7 km/h (1 Bft)
27.06.2012 17:50 23,4 C 52 % 0,0 l/m 4,2 km/h (1 Bft) S 180 13,0 C 27,5 C 4,5 km/h (1 Bft)
27.06.2012 17:55 24,0 C 50 % 0,0 l/m 5,1 km/h (1 Bft) SO 135 12,9 C 27,6 C 7,4 km/h (2 Bft)
27.06.2012 18:00 23,5 C 49 % 0,0 l/m 7,2 km/h (2 Bft) SO 135 12,2 C 27,5 C 18,8 km/h (3 Bft)
27.06.2012 18:05 22,6 C 52 % 0,0 l/m 7,7 km/h (2 Bft) SO 135 12,2 C 26,8 C 9,3 km/h (2 Bft)
27.06.2012 18:10 22,3 C 53 % 0,0 l/m 5,6 km/h (1 Bft) O-SO 112 12,2 C 24,9 C 4,0 km/h (1 Bft)
27.06.2012 18:15 22,6 C 52 % 0,0 l/m 5,5 km/h (1 Bft) SO 135 12,2 C 24,5 C 4,2 km/h (1 Bft)
27.06.2012 18:20 23,3 C 51 % 0,0 l/m 4,5 km/h (1 Bft) S-SO 157 12,6 C 25,4 C 4,3 km/h (1 Bft)
27.06.2012 18:25 23,9 C 48 % 0,0 l/m 4,7 km/h (1 Bft) SO 135 12,2 C 25,7 C 4,8 km/h (1 Bft)
27.06.2012 18:30 23,7 C 49 % 0,0 l/m 4,8 km/h (1 Bft) O-SO 112 12,3 C 26,6 C 4,0 km/h (1 Bft)
27.06.2012 18:35 23,0 C 49 % 0,0 l/m 4,5 km/h (1 Bft) SO 135 11,7 C 26,4 C 4,0 km/h (1 Bft)
27.06.2012 18:40 22,8 C 53 % 0,0 l/m 3,9 km/h (1 Bft) O-SO 112 12,7 C 25,7 C 6,6 km/h (2 Bft)
27.06.2012 18:45 23,0 C 51 % 0,0 l/m 3,9 km/h (1 Bft) O-SO 112 12,3 C 25,4 C 6,4 km/h (2 Bft)
27.06.2012 18:50 23,8 C 50 % 0,0 l/m 5,1 km/h (1 Bft) S-SW 202 12,7 C 26,5 C 4,2 km/h (1 Bft)
27.06.2012 18:55 23,2 C 50 % 0,0 l/m 5,1 km/h (1 Bft) S-SO 157 12,2 C 26,3 C 4,0 km/h (1 Bft)
27.06.2012 19:00 23,3 C 49 % 0,0 l/m 4,8 km/h (1 Bft) S 180 12,0 C 25,9 C 10,6 km/h (2 Bft)
27.06.2012 19:05 23,0 C 50 % 0,0 l/m 4,7 km/h (1 Bft) S 180 12,0 C 25,7 C 5,1 km/h (1 Bft)
27.06.2012 19:10 22,6 C 53 % 0,0 l/m 3,4 km/h (1 Bft) N-NO 22 12,5 C 24,7 C 0,0 km/h (0 Bft)
27.06.2012 19:15 22,6 C 55 % 0,0 l/m 2,1 km/h (1 Bft) O-SO 112 13,1 C 25,0 C 3,1 km/h (1 Bft)
27.06.2012 19:20 22,5 C 56 % 0,0 l/m 2,1 km/h (1 Bft) SO 135 13,3 C 26,4 C 4,0 km/h (1 Bft)
27.06.2012 19:25 22,3 C 56 % 0,0 l/m 2,1 km/h (1 Bft) S 180 13,1 C 26,5 C 0,0 km/h (0 Bft)
27.06.2012 19:30 22,2 C 53 % 0,0 l/m 3,2 km/h (1 Bft) SO 135 12,2 C 25,5 C 6,8 km/h (2 Bft)
27.06.2012 19:35 21,8 C 52 % 0,0 l/m 4,5 km/h (1 Bft) O-SO 112 11,5 C 24,4 C 4,3 km/h (1 Bft)
27.06.2012 19:40 21,5 C 54 % 0,0 l/m 4,7 km/h (1 Bft) SO 135 11,8 C 23,3 C 5,1 km/h (1 Bft)
27.06.2012 19:45 21,4 C 53 % 0,0 l/m 4,3 km/h (1 Bft) O-SO 112 11,4 C 23,0 C 5,1 km/h (1 Bft)
27.06.2012 19:50 21,2 C 54 % 0,0 l/m 2,3 km/h (1 Bft) NO 45 11,5 C 22,5 C 2,1 km/h (1 Bft)
27.06.2012 19:55 21,1 C 55 % 0,0 l/m 0,8 km/h (0 Bft) NO 45 11,7 C 22,3 C 0,0 km/h (0 Bft)
27.06.2012 20:00 21,0 C 56 % 0,0 l/m 0,2 km/h (0 Bft) O-SO 112 11,9 C 22,4 C 1,8 km/h (1 Bft)
27.06.2012 20:05 21,0 C 56 % 0,0 l/m 0,2 km/h (0 Bft) N-NO 22 11,9 C 22,4 C 1,8 km/h (1 Bft)
27.06.2012 20:10 20,5 C 59 % 0,0 l/m 0,2 km/h (0 Bft) N-NO 22 12,2 C 21,9 C 0,0 km/h (0 Bft)
27.06.2012 20:15 20,2 C 59 % 0,0 l/m 0,2 km/h (0 Bft) N-NW 337 11,9 C 21,4 C 1,9 km/h (1 Bft)
27.06.2012 20:20 19,9 C 61 % 0,0 l/m 0,5 km/h (0 Bft) N-NW 337 12,2 C 20,9 C 2,3 km/h (1 Bft)
27.06.2012 20:25 19,8 C 60 % 0,0 l/m 0,6 km/h (0 Bft) N 360 11,8 C 20,6 C 0,0 km/h (0 Bft)
27.06.2012 20:30 19,8 C 61 % 0,0 l/m 0,3 km/h (0 Bft) N 360 12,1 C 20,2 C 2,6 km/h (1 Bft)
27.06.2012 20:35 19,8 C 61 % 0,0 l/m 0,2 km/h (0 Bft) O-NO 67 12,1 C 20,2 C 0,0 km/h (0 Bft)
27.06.2012 20:40 19,6 C 62 % 0,0 l/m 0,2 km/h (0 Bft) O-NO 67 12,1 C 20,1 C 2,1 km/h (1 Bft)
27.06.2012 20:45 19,5 C 62 % 0,0 l/m 0,2 km/h (0 Bft) O 90 12,0 C 20,1 C 0,0 km/h (0 Bft)
27.06.2012 20:50 19,1 C 65 % 0,0 l/m 0,3 km/h (0 Bft) N-NO 22 12,4 C 19,9 C 2,4 km/h (1 Bft)
27.06.2012 20:55 18,8 C 65 % 0,0 l/m 0,2 km/h (0 Bft) N 360 12,1 C 19,6 C 0,0 km/h (0 Bft)
27.06.2012 21:00 18,7 C 66 % 0,0 l/m 0,2 km/h (0 Bft) N-NO 22 12,2 C 19,1 C 0,0 km/h (0 Bft)
27.06.2012 21:05 18,7 C 66 % 0,0 l/m 0,0 km/h (0 Bft) N-NO 22 12,2 C 19,0 C 0,0 km/h (0 Bft)
27.06.2012 21:10 18,5 C 67 % 0,0 l/m 0,0 km/h (0 Bft) N 360 12,3 C 18,6 C 1,8 km/h (1 Bft)
27.06.2012 21:15 18,4 C 67 % 0,0 l/m 0,0 km/h (0 Bft) N 360 12,2 C 18,4 C 0,0 km/h (0 Bft)
27.06.2012 21:20 18,1 C 68 % 0,0 l/m 0,0 km/h (0 Bft) NO 45 12,1 C 18,1 C 0,0 km/h (0 Bft)
27.06.2012 21:25 17,8 C 70 % 0,0 l/m 0,0 km/h (0 Bft) N 360 12,3 C 17,9 C 0,0 km/h (0 Bft)
27.06.2012 21:30 17,5 C 71 % 0,0 l/m 0,3 km/h (0 Bft) N 360 12,2 C 17,6 C 0,0 km/h (0 Bft)
27.06.2012 21:35 17,6 C 70 % 0,0 l/m 0,6 km/h (0 Bft) N 360 12,1 C 17,5 C 0,0 km/h (0 Bft)
27.06.2012 21:40 17,5 C 71 % 0,0 l/m 0,8 km/h (0 Bft) NO 45 12,2 C 17,3 C 0,0 km/h (0 Bft)
27.06.2012 21:45 17,4 C 71 % 0,0 l/m 0,6 km/h (0 Bft) N-NO 22 12,1 C 17,3 C 0,0 km/h (0 Bft)
27.06.2012 21:50 17,3 C 72 % 0,0 l/m 0,2 km/h (0 Bft) N-NO 22 12,2 C 17,1 C 0,0 km/h (0 Bft)
27.06.2012 21:55 17,3 C 72 % 0,0 l/m 0,2 km/h (0 Bft) NO 45 12,2 C 17,0 C 0,0 km/h (0 Bft)
27.06.2012 22:00 17,1 C 72 % 0,0 l/m 0,0 km/h (0 Bft) NO 45 12,0 C 17,0 C 0,0 km/h (0 Bft)
27.06.2012 22:05 17,0 C 73 % 0,0 l/m 0,0 km/h (0 Bft) N-NO 22 12,1 C 16,9 C 1,6 km/h (1 Bft)
27.06.2012 22:10 16,8 C 74 % 0,0 l/m 0,0 km/h (0 Bft) N-NO 22 12,1 C 16,7 C 0,0 km/h (0 Bft)
27.06.2012 22:15 16,8 C 74 % 0,0 l/m 0,3 km/h (0 Bft) N-NO 22 12,1 C 16,5 C 0,0 km/h (0 Bft)
27.06.2012 22:20 16,6 C 74 % 0,0 l/m 0,5 km/h (0 Bft) NO 45 11,9 C 16,4 C 3,2 km/h (1 Bft)
27.06.2012 22:25 16,4 C 75 % 0,0 l/m 0,8 km/h (0 Bft) N-NO 22 12,0 C 16,3 C 1,8 km/h (1 Bft)
27.06.2012 22:30 15,9 C 76 % 0,0 l/m 1,0 km/h (0 Bft) O-SO 112 11,7 C 16,0 C 1,6 km/h (1 Bft)
27.06.2012 22:35 15,8 C 77 % 0,0 l/m 0,8 km/h (0 Bft) N-NO 22 11,8 C 15,7 C 1,6 km/h (1 Bft)
27.06.2012 22:40 15,9 C 77 % 0,0 l/m 0,3 km/h (0 Bft) W 270 11,9 C 15,6 C 0,0 km/h (0 Bft)
27.06.2012 22:45 15,6 C 77 % 0,0 l/m 0,3 km/h (0 Bft) N 360 11,6 C 15,5 C 0,0 km/h (0 Bft)
27.06.2012 22:50 15,6 C 77 % 0,0 l/m 0,5 km/h (0 Bft) NO 45 11,6 C 15,3 C 0,0 km/h (0 Bft)
27.06.2012 22:55 15,7 C 77 % 0,0 l/m 0,3 km/h (0 Bft) N-NO 22 11,7 C 15,1 C 2,3 km/h (1 Bft)
27.06.2012 23:00 15,4 C 77 % 0,0 l/m 0,5 km/h (0 Bft) N-NO 22 11,4 C 15,0 C 2,3 km/h (1 Bft)
27.06.2012 23:05 15,4 C 77 % 0,0 l/m 0,5 km/h (0 Bft) N-NO 22 11,4 C 15,0 C 1,9 km/h (1 Bft)
27.06.2012 23:10 15,3 C 78 % 0,0 l/m 0,5 km/h (0 Bft) NO 45 11,5 C 14,9 C 2,4 km/h (1 Bft)
27.06.2012 23:15 15,4 C 78 % 0,0 l/m 0,3 km/h (0 Bft) N-NO 22 11,6 C 15,0 C 0,0 km/h (0 Bft)
27.06.2012 23:20 15,3 C 78 % 0,0 l/m 0,3 km/h (0 Bft) N-NO 22 11,5 C 14,9 C 0,0 km/h (0 Bft)
27.06.2012 23:25 15,3 C 78 % 0,0 l/m 0,3 km/h (0 Bft) N-NO 22 11,5 C 14,9 C 0,0 km/h (0 Bft)
27.06.2012 23:30 15,1 C 78 % 0,0 l/m 0,6 km/h (0 Bft) N 360 11,3 C 14,7 C 1,9 km/h (1 Bft)
27.06.2012 23:35 14,9 C 78 % 0,0 l/m 1,0 km/h (0 Bft) O-SO 112 11,1 C 14,7 C 0,0 km/h (0 Bft)
27.06.2012 23:40 14,8 C 79 % 0,0 l/m 0,3 km/h (0 Bft) S 180 11,2 C 14,5 C 0,0 km/h (0 Bft)
27.06.2012 23:45 14,7 C 79 % 0,0 l/m 0,3 km/h (0 Bft) N 360 11,1 C 14,5 C 1,9 km/h (1 Bft)
27.06.2012 23:50 14,6 C 79 % 0,0 l/m 0,3 km/h (0 Bft) N-NO 22 11,0 C 14,3 C 1,6 km/h (1 Bft)
27.06.2012 23:55 14,7 C 79 % 0,0 l/m 0,5 km/h (0 Bft) O-SO 112 11,1 C 14,3 C 2,3 km/h (1 Bft)
_ Min-Zeit 23:50 16:05 - 22:10 - - 23:50 06:05 23:40
Minimum _ 14,6 C 42 % - 0,0 km/h (0 Bft) - - 11,0 C 14,2 C 0,0 km/h (0 Bft)
_ Max-Zeit 16:00 07:45 23:55 18:05 - - 08:20 16:10 18:00
Maximum _ 26,8 C 89 % 0,0 l/m 7,7 km/h
SO (2 Bft)
- - 16,1 C 28,2 C 18,8 km/h
SO (3 Bft)
Durchschnitt _ 19,4 C 68 % #0,0 l/m 2,7 km/h (1 Bft) SO - 12,9 C 20,1 C 3,6 km/h (1 Bft)